Badlands National Park, SD

7:16 AM MDT on July 29, 2016 (GMT -0600)
Cactus Flat | | Change Station

Elev 2530 ft 43.81 °N, 101.89 °W | Updated 3 seconds ago

Fog
Fog
56.5 °F
Feels Like 56.5 °F
N
2.0
Wind Variable Wind from ESE
Gusts 2.5 mph

Today
High -- | Low -- °F
--% Chance of Precip.
Yesterday
High -- | Low -- °F
Precip. -- in
Pressure 30.08 in
Visibility 0.2 miles
Clouds
Dew Point 56 °F
Humidity 99%
Rainfall 0.00 in
Snow Depth Not available.
5:34 AM 8:13 PM
Waning Crescent, 22% visible
METAR KPHP 291255Z AUTO 23003KT M1/4SM FG VV002 14/14 A3010 RMK AO2 SLP185 T01440144 $
Pressure 30.08 in
Visibility 0.2 miles
Clouds
Dew Point 56 °F
Humidity 99%
Rainfall 0.00 in
Snow Depth Not available.
5:34 AM 8:13 PM
Waning Crescent, 22% visible
METAR KPHP 291255Z AUTO 23003KT M1/4SM FG VV002 14/14 A3010 RMK AO2 SLP185 T01440144 $

10-Day Weather Forecast

Almanac

Astronomy

Jul. 29, 2016 Rise Set
Actual Time
Civil Twilight
Nautical Twilight
Astronomical Twilight
Moon
Length of Visible Light
Length of Day
Tomorrow will be .
, % of the Moon is Illuminated

Today's Extremes

State Highs State Lows

Community

WunderPhotos

Upload Photos

1,928,339 photos uploaded!

WunderBlog® & News

Nearby

Air Quality

  Air Quality AQ Index Pollutant
Not available.

Snow Depth

Station Depth Elevation

Earthquake Activity

City Distance Mag. Time & Date
Minimum magnitude displayed is 2.5.

Coastal Water Temperatures

Place Temperature

Stations

Nearby Weather Stations

Station Location Temp. Windchill Dew Point Humidity Wind Precip. Elev Updated Type
                   

Watches & Warnings

There are currently no watches in effect.